Time;durP1;ratioP1;P1;durP2;ratioP2;P2;SDS_P1;SDS_P2;PMS_P1;PMS_P2;Temp;Humidity;BMP_temperature;BMP_pressure;BME280_temperature;BME280_humidity;BME280_pressure;Samples;Min_cycle;Max_cycle;Signal;HPM_P1;HPM_P2
2020/12/01 00:00:46;;;;;;;28.17;4.70;;;9.50;99.90;;;;;;5007479;28;20211;-81
2020/12/01 00:03:13;;;;;;;25.70;4.63;;;9.50;99.90;;;;;;5005497;28;20223;-79
2020/12/01 00:05:40;;;;;;;23.43;4.10;;;9.60;99.90;;;;;;5004460;28;20199;-78
2020/12/01 00:08:06;;;;;;;21.73;3.47;;;9.60;99.90;;;;;;5005272;28;20710;-79
2020/12/01 00:10:34;;;;;;;18.57;3.27;;;9.60;99.90;;;;;;5006678;28;20880;-87
2020/12/01 00:13:04;;;;;;;18.40;3.73;;;9.60;99.90;;;;;;5004543;28;20218;-81
2020/12/01 00:15:30;;;;;;;20.17;3.53;;;9.60;99.90;;;;;;5004530;28;20515;-79
2020/12/01 00:17:57;;;;;;;18.13;3.80;;;9.50;99.90;;;;;;5007647;28;20207;-78
2020/12/01 00:20:24;;;;;;;16.77;3.13;;;9.50;99.90;;;;;;5011474;28;20199;-91
2020/12/01 00:22:50;;;;;;;21.67;3.93;;;9.50;99.90;;;;;;5010340;28;20202;-90
2020/12/01 00:25:17;;;;;;;14.20;3.07;;;9.40;99.90;;;;;;5011501;28;20200;-86
2020/12/01 00:27:44;;;;;;;17.83;2.60;;;9.40;99.90;;;;;;5011209;28;20207;-85
2020/12/01 00:30:13;;;;;;;12.97;2.43;;;9.40;99.90;;;;;;5010611;28;20221;-89
2020/12/01 00:32:39;;;;;;;12.53;3.53;;;9.40;99.90;;;;;;5010655;28;20199;-79
2020/12/01 00:35:07;;;;;;;18.87;3.70;;;9.40;99.90;;;;;;5006933;28;20211;-78
2020/12/01 00:37:33;;;;;;;11.97;2.43;;;9.40;99.90;;;;;;5007961;28;20203;-80
2020/12/01 00:40:00;;;;;;;10.80;2.90;;;9.40;99.90;;;;;;5006493;28;20214;-79
2020/12/01 00:42:26;;;;;;;17.47;2.80;;;9.40;99.90;;;;;;5020928;23;20258;-77
2020/12/01 00:44:52;;;;;;;18.33;3.63;;;9.40;99.90;;;;;;5026090;28;20218;-78
2020/12/01 00:47:20;;;;;;;13.97;2.73;;;9.40;99.90;;;;;;5025254;28;20214;-79
2020/12/01 00:49:46;;;;;;;16.17;3.53;;;9.40;99.90;;;;;;5024949;28;20229;-80
2020/12/01 00:52:12;;;;;;;14.33;2.53;;;9.40;99.90;;;;;;5026210;28;20226;-87
2020/12/01 00:54:41;;;;;;;11.37;2.83;;;9.50;99.90;;;;;;5025759;28;20205;-80
2020/12/01 00:57:11;;;;;;;22.50;3.30;;;9.40;99.90;;;;;;5024803;28;20294;-78
2020/12/01 00:59:38;;;;;;;13.80;2.90;;;9.50;99.90;;;;;;5024496;28;21009;-80
2020/12/01 01:02:05;;;;;;;9.77;2.60;;;9.40;99.90;;;;;;5023814;28;21065;-78
2020/12/01 01:04:33;;;;;;;11.07;3.47;;;9.40;99.90;;;;;;5024524;28;20210;-78
2020/12/01 01:07:00;;;;;;;10.57;2.63;;;9.40;99.90;;;;;;5026975;28;20515;-78
2020/12/01 01:09:27;;;;;;;19.73;2.93;;;9.40;99.90;;;;;;5027338;28;20511;-93
2020/12/01 01:11:53;;;;;;;17.40;3.00;;;9.40;99.90;;;;;;5025502;28;20237;-88
2020/12/01 01:14:19;;;;;;;14.67;2.53;;;9.40;99.90;;;;;;5026270;22;20230;-79
2020/12/01 01:16:46;;;;;;;16.63;3.33;;;9.40;99.90;;;;;;5006589;28;20202;-84
2020/12/01 01:19:16;;;;;;;12.93;2.20;;;9.40;99.90;;;;;;5011630;28;20206;-95
2020/12/01 01:21:44;;;;;;;13.63;3.47;;;9.40;99.90;;;;;;5014058;28;20223;-91
2020/12/01 01:24:13;;;;;;;21.97;2.97;;;9.40;99.90;;;;;;5014649;28;20218;-94
2020/12/01 01:26:41;;;;;;;15.10;3.00;;;9.40;99.90;;;;;;5037086;22;20234;-83
2020/12/01 01:29:08;;;;;;;14.30;2.60;;;9.40;99.90;;;;;;5032799;28;20544;-95
2020/12/01 01:31:34;;;;;;;23.43;3.87;;;9.40;99.90;;;;;;5033345;28;20226;-94
2020/12/01 01:34:04;;;;;;;15.13;3.60;;;9.40;99.90;;;;;;5031987;28;20516;-95
2020/12/01 01:36:33;;;;;;;15.43;2.53;;;9.40;99.90;;;;;;5033923;28;20202;-96
2020/12/01 01:39:01;;;;;;;20.00;3.17;;;9.40;99.90;;;;;;5031495;28;20202;-85
2020/12/01 01:41:30;;;;;;;14.50;2.63;;;9.40;99.90;;;;;;5029707;28;20603;-93
2020/12/01 01:43:57;;;;;;;14.00;3.03;;;9.50;99.90;;;;;;5031877;28;20206;-87
2020/12/01 01:46:40;;;;;;;9.57;2.53;;;9.40;99.90;;;;;;5031634;28;20226;-95
2020/12/01 01:49:11;;;;;;;9.63;3.00;;;9.50;99.90;;;;;;5027882;28;20194;-79
2020/12/01 01:51:39;;;;;;;11.27;2.03;;;9.40;99.90;;;;;;5028322;28;20227;-79
2020/12/01 01:54:07;;;;;;;13.53;3.10;;;9.40;99.90;;;;;;5025545;28;20202;-78
2020/12/01 01:56:39;;;;;;;18.60;3.90;;;9.30;99.90;;;;;;5024300;28;20471;-78
2020/12/01 01:59:07;;;;;;;12.07;3.13;;;9.30;99.90;;;;;;5024363;28;20202;-94
2020/12/01 02:01:34;;;;;;;12.93;2.53;;;9.30;99.90;;;;;;5025487;28;20870;-78
2020/12/01 02:04:04;;;;;;;20.10;4.50;;;9.30;99.90;;;;;;5024364;28;20295;-79
2020/12/01 02:06:36;;;;;;;14.63;3.53;;;9.30;99.90;;;;;;5024030;28;20198;-77
2020/12/01 02:09:07;;;;;;;21.33;4.63;;;9.30;99.90;;;;;;5025006;28;20214;-79
2020/12/01 02:11:37;;;;;;;15.50;2.83;;;9.40;99.90;;;;;;5023511;28;20522;-78
2020/12/01 02:14:09;;;;;;;15.43;3.83;;;9.30;99.90;;;;;;5024185;28;20203;-90
2020/12/01 02:16:38;;;;;;;11.43;2.23;;;9.30;99.90;;;;;;5027678;28;20203;-92
2020/12/01 02:19:07;;;;;;;12.40;2.10;;;9.30;99.90;;;;;;5034886;28;20203;-96
2020/12/01 02:21:35;;;;;;;19.87;3.20;;;9.30;99.90;;;;;;5034156;28;20278;-94
2020/12/01 02:24:04;;;;;;;15.83;2.73;;;9.30;99.90;;;;;;5035035;28;20290;-93
2020/12/01 02:26:32;;;;;;;21.40;3.67;;;9.30;99.90;;;;;;5033252;28;20234;-85
2020/12/01 02:29:02;;;;;;;14.50;2.53;;;9.30;99.90;;;;;;5033593;28;20206;-91
2020/12/01 02:31:28;;;;;;;15.27;3.10;;;9.30;99.90;;;;;;5034719;28;20408;-94
2020/12/01 02:33:55;;;;;;;15.20;2.63;;;9.30;99.90;;;;;;5033556;28;20213;-89
2020/12/01 02:36:21;;;;;;;18.63;2.83;;;9.40;99.90;;;;;;5034615;28;20206;-95
2020/12/01 02:38:47;;;;;;;15.73;3.47;;;9.40;99.90;;;;;;5034202;28;20222;-91
2020/12/01 02:41:14;;;;;;;25.17;3.73;;;9.40;99.90;;;;;;5034411;28;20206;-96
2020/12/01 02:43:41;;;;;;;16.77;3.57;;;9.40;99.90;;;;;;5033878;28;20295;-83
2020/12/01 02:46:07;;;;;;;12.67;3.17;;;9.40;99.90;;;;;;5033222;28;20934;-85
2020/12/01 02:48:33;;;;;;;13.30;2.33;;;9.40;99.90;;;;;;5032968;28;20489;-90
2020/12/01 02:51:02;;;;;;;10.97;3.60;;;9.40;99.90;;;;;;5033223;28;20223;-95
2020/12/01 02:53:28;;;;;;;13.37;3.37;;;9.40;99.90;;;;;;5034347;28;20242;-88
2020/12/01 02:55:55;;;;;;;15.67;2.47;;;9.40;99.90;;;;;;5032165;28;20210;-94
2020/12/01 02:58:21;;;;;;;15.60;2.90;;;9.50;99.90;;;;;;5031657;28;20205;-86
2020/12/01 03:00:48;;;;;;;12.33;2.73;;;9.50;99.90;;;;;;5032001;28;20229;-83
2020/12/01 03:03:14;;;;;;;17.93;3.30;;;9.50;99.90;;;;;;5031101;28;20198;-90
2020/12/01 03:05:41;;;;;;;25.87;4.33;;;9.60;99.90;;;;;;5032917;28;20202;-92
2020/12/01 03:08:07;;;;;;;28.80;4.20;;;9.60;99.90;;;;;;5029636;28;20214;-92
2020/12/01 03:10:33;;;;;;;20.83;4.43;;;9.60;99.90;;;;;;5026829;28;20218;-85
2020/12/01 03:12:59;;;;;;;32.07;5.83;;;9.60;99.90;;;;;;5029636;28;20209;-90
2020/12/01 03:15:26;;;;;;;26.20;4.53;;;9.60;99.90;;;;;;5031606;28;20206;-79
2020/12/01 03:17:53;;;;;;;30.97;7.03;;;9.60;99.90;;;;;;5026866;28;20198;-83
2020/12/01 03:20:20;;;;;;;44.57;8.80;;;9.60;99.90;;;;;;5031439;28;20195;-91
2020/12/01 03:22:46;;;;;;;37.83;6.27;;;9.60;99.90;;;;;;5030775;28;20383;-88
2020/12/01 03:25:12;;;;;;;28.27;7.07;;;9.70;99.90;;;;;;5029406;28;20862;-84
2020/12/01 03:27:39;;;;;;;37.87;6.63;;;9.70;99.90;;;;;;5030517;28;20206;-79
2020/12/01 03:30:06;;;;;;;35.83;6.33;;;9.70;99.90;;;;;;5031887;28;20195;-90
2020/12/01 03:32:33;;;;;;;30.07;5.13;;;9.70;99.90;;;;;;5034687;28;20231;-86
2020/12/01 03:35:00;;;;;;;31.80;5.67;;;9.70;99.90;;;;;;5033230;28;20209;-91
2020/12/01 03:37:29;;;;;;;30.57;5.93;;;9.80;99.90;;;;;;5033228;28;20214;-96
2020/12/01 03:39:56;;;;;;;34.53;7.27;;;9.70;99.90;;;;;;5035290;28;20240;-94
2020/12/01 03:42:22;;;;;;;43.60;7.97;;;9.70;99.90;;;;;;5033870;28;20195;-84
2020/12/01 03:44:48;;;;;;;35.07;7.33;;;9.80;99.90;;;;;;5032760;28;20202;-85
2020/12/01 03:47:15;;;;;;;38.43;6.57;;;9.70;99.90;;;;;;5033337;28;20555;-90
2020/12/01 03:49:41;;;;;;;30.00;6.07;;;9.70;99.90;;;;;;5031904;28;20203;-89
2020/12/01 03:52:08;;;;;;;28.90;5.90;;;9.70;99.90;;;;;;5034292;28;20222;-95
2020/12/01 03:54:34;;;;;;;30.27;5.87;;;9.70;99.90;;;;;;5034225;28;20206;-95
2020/12/01 03:57:01;;;;;;;30.63;5.97;;;9.70;99.90;;;;;;5030364;28;20197;-80
2020/12/01 03:59:27;;;;;;;32.50;6.87;;;9.70;99.90;;;;;;5035287;28;20191;-94
2020/12/01 04:01:53;;;;;;;39.43;7.50;;;9.70;99.90;;;;;;5031053;28;20911;-80
2020/12/01 04:04:19;;;;;;;33.60;7.23;;;9.70;99.90;;;;;;5024950;28;20198;-79
2020/12/01 04:06:46;;;;;;;39.93;7.47;;;9.70;99.90;;;;;;5025247;28;20265;-78
2020/12/01 04:09:13;;;;;;;34.97;6.20;;;9.70;99.90;;;;;;5025685;28;20195;-78
2020/12/01 04:11:39;;;;;;;39.87;6.93;;;9.70;99.90;;;;;;5025114;28;20810;-80
2020/12/01 04:14:05;;;;;;;34.73;6.63;;;9.70;99.90;;;;;;5029772;28;20721;-82
2020/12/01 04:16:32;;;;;;;30.10;7.17;;;9.70;99.90;;;;;;5025566;28;20206;-84
2020/12/01 04:18:58;;;;;;;30.33;7.43;;;9.70;99.90;;;;;;5025305;28;20598;-80
2020/12/01 04:21:24;;;;;;;27.03;5.70;;;9.70;99.90;;;;;;5028025;28;20201;-80
2020/12/01 04:23:51;;;;;;;21.97;4.90;;;9.70;99.90;;;;;;5026245;28;20290;-80
2020/12/01 04:26:20;;;;;;;24.93;5.07;;;9.70;99.90;;;;;;5024543;28;20238;-76
2020/12/01 04:28:47;;;;;;;28.03;5.80;;;9.60;99.90;;;;;;5025855;28;20203;-78
2020/12/01 04:31:13;;;;;;;24.83;5.50;;;9.60;99.90;;;;;;5024924;28;20233;-80
2020/12/01 04:33:40;;;;;;;26.70;5.77;;;9.60;99.90;;;;;;5024843;28;20195;-78
2020/12/01 04:36:06;;;;;;;27.33;4.83;;;9.60;99.90;;;;;;5025493;28;20217;-79
2020/12/01 04:38:35;;;;;;;31.20;5.93;;;9.60;99.90;;;;;;5025663;28;20198;-80
2020/12/01 04:41:04;;;;;;;29.47;5.73;;;9.60;99.90;;;;;;5024094;28;20676;-82
2020/12/01 04:43:35;;;;;;;23.83;4.90;;;9.60;99.90;;;;;;5025022;28;20199;-79
2020/12/01 04:46:02;;;;;;;29.97;5.00;;;9.60;99.90;;;;;;5025860;28;20226;-78
2020/12/01 04:48:36;;;;;;;37.93;6.60;;;9.60;99.90;;;;;;5025606;28;20272;-80
2020/12/01 04:51:14;;;;;;;27.77;5.07;;;9.60;99.90;;;;;;5025065;28;20221;-79
2020/12/01 04:54:28;;;;;;;29.27;5.43;;;9.50;99.90;;;;;;5025691;28;20190;-78
2020/12/01 04:57:12;;;;;;;25.43;5.60;;;9.50;99.90;;;;;;5024859;28;20718;-79
2020/12/01 05:00:02;;;;;;;28.80;5.20;;;9.50;99.90;;;;;;5025317;28;20635;-93
2020/12/01 05:02:43;;;;;;;31.63;6.97;;;9.50;99.90;;;;;;5024093;28;20626;-84
2020/12/01 05:05:44;;;;;;;26.37;5.30;;;9.50;99.90;;;;;;5024339;22;20233;-80
2020/12/01 05:08:35;;;;;;;32.87;5.13;;;9.50;99.90;;;;;;5004446;28;20588;-82
2020/12/01 05:11:08;;;;;;;27.93;5.00;;;9.50;99.90;;;;;;5005050;28;20223;-81
2020/12/01 05:13:35;;;;;;;33.90;6.70;;;9.50;99.90;;;;;;5007600;28;20199;-81
2020/12/01 05:16:23;;;;;;;27.23;6.27;;;9.50;99.90;;;;;;5006595;28;20498;-91
2020/12/01 05:18:50;;;;;;;30.30;5.37;;;9.50;99.90;;;;;;5006547;28;20203;-80
2020/12/01 05:21:21;;;;;;;28.50;5.27;;;9.50;99.90;;;;;;5008390;28;20502;-84
2020/12/01 05:23:49;;;;;;;26.40;5.60;;;9.50;99.90;;;;;;5008363;28;20207;-78
2020/12/01 05:26:17;;;;;;;33.80;5.23;;;9.50;99.90;;;;;;5005301;28;20199;-90
2020/12/01 05:28:45;;;;;;;32.20;7.23;;;9.50;99.90;;;;;;5005441;28;20207;-81
2020/12/01 05:31:15;;;;;;;31.93;5.30;;;9.50;99.90;;;;;;5005573;28;20226;-82
2020/12/01 05:33:41;;;;;;;31.67;6.33;;;9.50;99.90;;;;;;5006259;28;20207;-79
2020/12/01 05:36:19;;;;;;;27.47;7.13;;;9.50;99.90;;;;;;5007022;28;20218;-79
2020/12/01 05:38:56;;;;;;;28.13;5.63;;;9.50;99.90;;;;;;5006268;28;20202;-80
2020/12/01 05:41:26;;;;;;;41.93;7.80;;;9.50;99.90;;;;;;5005588;28;20191;-80
2020/12/01 05:43:55;;;;;;;40.30;7.00;;;9.50;99.90;;;;;;5006834;28;20200;-81
2020/12/01 05:46:31;;;;;;;34.53;6.67;;;9.50;99.90;;;;;;5007189;28;20215;-81
2020/12/01 05:49:06;;;;;;;38.17;7.77;;;9.50;99.90;;;;;;5007188;28;20588;-88
2020/12/01 05:51:40;;;;;;;37.17;6.47;;;9.50;99.90;;;;;;5006784;28;20215;-79
2020/12/01 05:54:14;;;;;;;29.43;6.63;;;9.50;99.90;;;;;;5010150;28;20206;-88
2020/12/01 05:56:48;;;;;;;39.10;6.70;;;9.50;99.90;;;;;;5011122;28;20234;-78
2020/12/01 05:59:16;;;;;;;42.57;8.53;;;9.60;99.90;;;;;;5010243;28;20203;-81
2020/12/01 06:01:47;;;;;;;34.80;7.67;;;9.60;99.90;;;;;;5009894;28;20199;-81
2020/12/01 06:04:15;;;;;;;37.53;7.20;;;9.60;99.90;;;;;;5009463;28;20615;-89
2020/12/01 06:07:02;;;;;;;24.20;5.43;;;9.60;99.90;;;;;;5008341;28;20242;-88
2020/12/01 06:09:43;;;;;;;38.63;7.80;;;9.60;99.90;;;;;;5008600;28;20218;-90
2020/12/01 06:12:19;;;;;;;30.83;6.93;;;9.60;99.90;;;;;;5010118;28;20248;-86
2020/12/01 06:14:54;;;;;;;30.13;6.87;;;9.60;99.90;;;;;;5010745;28;20195;-85
2020/12/01 06:17:28;;;;;;;31.60;6.20;;;9.60;99.90;;;;;;5008672;28;20854;-83
2020/12/01 06:20:01;;;;;;;29.70;5.70;;;9.60;99.90;;;;;;5008871;28;20668;-79
2020/12/01 06:22:56;;;;;;;31.50;6.50;;;9.60;99.90;;;;;;5010554;28;20230;-82
2020/12/01 06:25:58;;;;;;;21.00;4.80;;;9.50;99.90;;;;;;5008677;28;20215;-80
2020/12/01 06:29:21;;;;;;;26.90;4.53;;;9.40;99.90;;;;;;5012446;28;20199;-92
2020/12/01 06:32:11;;;;;;;20.77;4.57;;;9.40;99.90;;;;;;4950234;29;20240;-90
2020/12/01 06:35:06;;;;;;;20.33;4.67;;;9.30;99.90;;;;;;4952635;29;20205;-91
2020/12/01 06:37:36;;;;;;;23.87;3.73;;;9.30;99.90;;;;;;5009622;28;20215;-80
2020/12/01 06:40:14;;;;;;;28.23;5.90;;;9.30;99.90;;;;;;5011315;28;20207;-91
2020/12/01 06:42:44;;;;;;;29.93;6.77;;;9.20;99.90;;;;;;5011838;28;20206;-79
2020/12/01 06:45:23;;;;;;;34.50;6.33;;;9.20;99.90;;;;;;5011671;28;20199;-90
2020/12/01 06:47:52;;;;;;;34.37;6.23;;;9.20;99.90;;;;;;5011301;28;20217;-89
2020/12/01 06:50:21;;;;;;;27.27;7.20;;;9.30;99.90;;;;;;5012143;28;20206;-93
2020/12/01 06:52:56;;;;;;;31.80;6.40;;;9.30;99.90;;;;;;5010941;28;20857;-84
2020/12/01 06:55:51;;;;;;;38.50;7.43;;;9.30;99.90;;;;;;5011667;28;20207;-84
2020/12/01 06:58:39;;;;;;;36.10;6.53;;;9.30;99.90;;;;;;5009015;28;20222;-90
2020/12/01 07:01:25;;;;;;;26.63;5.67;;;9.40;99.90;;;;;;5011894;28;20199;-87
2020/12/01 07:04:04;;;;;;;31.30;6.63;;;9.40;99.90;;;;;;5011185;28;20195;-81
2020/12/01 07:06:46;;;;;;;28.33;4.57;;;9.40;99.90;;;;;;5011471;28;20245;-92
2020/12/01 07:09:15;;;;;;;31.10;7.53;;;9.40;99.90;;;;;;5011175;28;20194;-83
2020/12/01 07:11:56;;;;;;;31.27;6.37;;;9.50;99.90;;;;;;5008801;28;20671;-79
2020/12/01 07:14:27;;;;;;;27.80;6.60;;;9.50;99.90;;;;;;5006674;28;20233;-79
2020/12/01 07:16:53;;;;;;;28.77;5.73;;;9.50;99.90;;;;;;5007679;28;20953;-78
2020/12/01 07:19:36;;;;;;;27.50;6.43;;;9.50;99.90;;;;;;5011719;28;20203;-89
2020/12/01 07:22:09;;;;;;;31.10;6.53;;;9.60;99.90;;;;;;5011635;28;20606;-87
2020/12/01 07:24:43;;;;;;;31.27;7.60;;;9.60;99.90;;;;;;5012824;28;20234;-93
2020/12/01 07:27:18;;;;;;;26.57;6.07;;;9.60;99.90;;;;;;5012427;28;20210;-88
2020/12/01 07:30:00;;;;;;;29.10;5.43;;;9.70;99.90;;;;;;5012616;28;20187;-89
2020/12/01 07:32:29;;;;;;;38.23;6.23;;;9.70;99.90;;;;;;5011868;28;20721;-89
2020/12/01 07:35:08;;;;;;;27.80;7.17;;;9.70;99.90;;;;;;5012291;28;20210;-89
2020/12/01 07:37:58;;;;;;;30.00;5.43;;;9.70;99.90;;;;;;5011282;28;20191;-81
2020/12/01 07:40:28;;;;;;;26.73;5.67;;;9.70;99.90;;;;;;5008007;28;20558;-89
2020/12/01 07:43:00;;;;;;;25.57;5.37;;;9.70;99.90;;;;;;5012339;28;20487;-93
2020/12/01 07:45:28;;;;;;;33.07;6.87;;;9.70;99.90;;;;;;5011725;28;20191;-88
2020/12/01 07:47:57;;;;;;;30.27;6.03;;;9.70;99.90;;;;;;5011365;28;20226;-89
2020/12/01 07:50:23;;;;;;;35.10;6.50;;;9.70;99.90;;;;;;5009109;28;20623;-83
2020/12/01 07:52:57;;;;;;;28.50;5.63;;;9.80;99.90;;;;;;5007664;28;20227;-79
2020/12/01 07:55:27;;;;;;;34.50;6.57;;;9.80;99.90;;;;;;5010391;28;20241;-87
2020/12/01 07:57:58;;;;;;;20.60;4.37;;;9.80;99.90;;;;;;5007433;28;20211;-79
2020/12/01 08:00:25;;;;;;;21.73;4.07;;;9.80;99.90;;;;;;5008435;28;20854;-82
2020/12/01 08:03:00;;;;;;;22.43;4.43;;;9.80;99.90;;;;;;5010384;28;20203;-84
2020/12/01 08:23:30;;;;;;;19.70;4.23;;;9.60;99.90;;;;;;4915956;29;20223;-82
2020/12/01 08:26:04;;;;;;;25.73;4.40;;;9.70;99.90;;;;;;4948785;29;20208;-80
2020/12/01 08:28:36;;;;;;;23.20;4.60;;;9.70;99.90;;;;;;4945082;29;20194;-79
2020/12/01 08:31:11;;;;;;;19.70;4.93;;;9.70;99.90;;;;;;4944657;29;20708;-83
2020/12/01 08:34:03;;;;;;;20.97;5.57;;;9.70;99.90;;;;;;4947047;29;20220;-84
2020/12/01 08:36:44;;;;;;;34.83;5.77;;;9.80;99.90;;;;;;4946611;29;20209;-78
2020/12/01 08:39:41;;;;;;;22.77;4.77;;;9.80;99.90;;;;;;4946276;29;20205;-82
2020/12/01 08:42:16;;;;;;;28.20;5.03;;;9.90;99.90;;;;;;4946273;29;20513;-81
2020/12/01 08:44:47;;;;;;;23.10;4.73;;;9.90;99.90;;;;;;4942674;29;20227;-81
2020/12/01 08:47:13;;;;;;;19.33;3.90;;;9.90;99.90;;;;;;4942308;29;20214;-76
2020/12/01 08:49:46;;;;;;;21.70;5.57;;;10.00;99.90;;;;;;4943175;29;20510;-78
2020/12/01 08:52:29;;;;;;;19.33;5.03;;;10.00;99.90;;;;;;4942926;29;20318;-76
2020/12/01 08:55:01;;;;;;;24.57;5.60;;;10.00;99.90;;;;;;4942232;29;20217;-75
2020/12/01 08:57:33;;;;;;;23.27;5.87;;;10.00;99.90;;;;;;4942099;29;20217;-76
2020/12/01 09:00:09;;;;;;;23.10;5.13;;;10.00;99.90;;;;;;4940440;29;20237;-76
2020/12/01 09:02:40;;;;;;;26.87;6.97;;;10.00;99.90;;;;;;4942101;29;20204;-77
2020/12/01 09:05:08;;;;;;;31.93;6.73;;;10.10;99.90;;;;;;4946616;29;20669;-80
2020/12/01 09:07:38;;;;;;;26.13;5.23;;;10.00;99.90;;;;;;4943603;29;20237;-77
2020/12/01 09:10:12;;;;;;;26.47;5.77;;;10.10;99.90;;;;;;4944111;29;20197;-79
2020/12/01 09:12:42;;;;;;;20.47;5.17;;;10.10;99.90;;;;;;4967948;28;20236;-90
2020/12/01 09:15:26;;;;;;;17.03;4.17;;;10.10;99.90;;;;;;4985214;28;20199;-83
2020/12/01 09:18:02;;;;;;;19.00;4.43;;;10.10;99.90;;;;;;4992863;28;20271;-91
2020/12/01 09:23:19;;;;;;;26.80;4.30;;;10.10;99.90;;;;;;4991700;28;20672;-85
2020/12/01 09:25:48;;;;;;;20.07;4.83;;;10.10;99.90;;;;;;5026448;28;20206;-85
2020/12/01 09:28:16;;;;;;;23.50;6.40;;;10.10;99.90;;;;;;5028761;28;20213;-87
2020/12/01 09:30:43;;;;;;;19.07;5.03;;;10.10;99.90;;;;;;5031320;28;20203;-85
2020/12/01 09:33:11;;;;;;;26.97;5.60;;;10.10;99.90;;;;;;5033223;28;20507;-84
2020/12/01 09:35:38;;;;;;;25.90;5.73;;;10.20;99.90;;;;;;5033244;28;20214;-80
2020/12/01 09:38:04;;;;;;;23.77;4.70;;;10.10;99.90;;;;;;5033211;28;20205;-82
2020/12/01 09:40:33;;;;;;;22.67;5.17;;;10.10;99.90;;;;;;5032326;28;20260;-85
2020/12/01 09:43:07;;;;;;;23.70;5.20;;;10.10;99.90;;;;;;5032083;28;20203;-83
2020/12/01 09:45:35;;;;;;;24.47;5.13;;;10.10;99.90;;;;;;5032043;28;20213;-85
2020/12/01 09:48:06;;;;;;;23.87;4.63;;;10.10;99.90;;;;;;5032956;28;20300;-84
2020/12/01 09:50:35;;;;;;;22.20;4.60;;;10.10;99.90;;;;;;5031103;28;20218;-83
2020/12/01 09:53:20;;;;;;;16.47;4.70;;;10.10;99.90;;;;;;5031060;28;20226;-83
2020/12/01 09:55:55;;;;;;;22.57;5.07;;;10.20;99.90;;;;;;5030837;28;20202;-82
2020/12/01 09:58:40;;;;;;;21.83;4.60;;;10.20;99.90;;;;;;5029767;28;20221;-82
2020/12/01 10:09:27;;;;;;;25.67;5.20;;;10.20;99.90;;;;;;5030400;28;20254;-83
2020/12/01 10:12:15;;;;;;;25.80;5.40;;;10.30;99.90;;;;;;5028545;28;20226;-82
2020/12/01 10:34:24;;;;;;;24.80;4.77;;;10.60;99.90;;;;;;5031039;28;20190;-82
2020/12/01 10:36:54;;;;;;;20.87;4.90;;;10.60;99.90;;;;;;5028340;28;20539;-76
2020/12/01 10:39:21;;;;;;;22.17;3.80;;;10.70;99.90;;;;;;5026030;28;20206;-84
2020/12/01 10:41:47;;;;;;;22.20;4.93;;;10.70;99.90;;;;;;5028709;28;20917;-84
2020/12/01 10:44:14;;;;;;;19.00;4.03;;;10.70;99.90;;;;;;5028763;28;20479;-85
2020/12/01 10:46:45;;;;;;;27.00;5.53;;;10.80;99.90;;;;;;5028267;28;20215;-75
2020/12/01 10:49:12;;;;;;;14.57;4.20;;;10.80;99.90;;;;;;5026930;28;20201;-79
2020/12/01 10:51:38;;;;;;;24.23;4.70;;;10.80;99.90;;;;;;5026701;28;20234;-76
2020/12/01 10:54:04;;;;;;;23.47;4.77;;;10.80;99.90;;;;;;5026148;28;20202;-78
2020/12/01 10:56:30;;;;;;;25.50;5.30;;;10.70;99.90;;;;;;5025734;28;20222;-76
2020/12/01 10:58:57;;;;;;;18.63;4.77;;;10.70;99.90;;;;;;5026766;28;20542;-82
2020/12/01 11:01:23;;;;;;;28.27;5.33;;;10.70;99.90;;;;;;5027261;28;20553;-77
2020/12/01 11:03:50;;;;;;;22.20;4.37;;;10.70;99.90;;;;;;5028009;28;20607;-79
2020/12/01 11:06:16;;;;;;;24.23;4.33;;;10.70;99.90;;;;;;5025469;28;20199;-77
2020/12/01 11:08:42;;;;;;;16.50;4.90;;;10.70;99.90;;;;;;5025818;28;20901;-82
2020/12/01 11:11:09;;;;;;;20.07;4.23;;;10.70;99.90;;;;;;5026948;28;20202;-82
2020/12/01 11:13:35;;;;;;;21.87;4.30;;;10.80;99.90;;;;;;5027794;28;20241;-76
2020/12/01 11:16:01;;;;;;;18.57;4.67;;;10.80;99.90;;;;;;5026292;28;20213;-77
2020/12/01 11:18:27;;;;;;;24.83;4.57;;;10.90;99.90;;;;;;5026438;28;20231;-80
2020/12/01 11:20:54;;;;;;;16.87;4.20;;;10.90;99.90;;;;;;5027860;28;20210;-84
2020/12/01 11:23:21;;;;;;;33.93;6.20;;;10.80;99.90;;;;;;5029104;28;20637;-81
2020/12/01 11:25:47;;;;;;;29.43;5.60;;;10.80;99.90;;;;;;5018972;28;20212;-84
2020/12/01 11:28:13;;;;;;;25.53;6.73;;;10.80;99.90;;;;;;5008687;28;20214;-80
2020/12/01 11:30:40;;;;;;;20.03;5.47;;;10.80;99.90;;;;;;5010107;28;20663;-82
2020/12/01 11:33:06;;;;;;;30.03;5.20;;;10.80;99.90;;;;;;5010365;28;20230;-83
2020/12/01 11:35:32;;;;;;;20.47;5.50;;;10.90;99.90;;;;;;5008339;28;20230;-85
2020/12/01 11:37:59;;;;;;;27.00;5.33;;;10.90;99.90;;;;;;5008980;28;20210;-84
2020/12/01 11:40:25;;;;;;;25.17;4.87;;;10.90;99.90;;;;;;5008984;28;20207;-77
2020/12/01 11:42:52;;;;;;;22.27;4.97;;;10.90;99.90;;;;;;5008910;28;20195;-81
2020/12/01 11:45:19;;;;;;;19.37;4.63;;;11.00;99.90;;;;;;5008598;28;20286;-86
2020/12/01 11:47:45;;;;;;;26.67;5.70;;;11.00;99.90;;;;;;5018799;28;20226;-86
2020/12/01 11:50:12;;;;;;;26.23;5.53;;;11.10;99.90;;;;;;5006931;28;20207;-77
2020/12/01 11:52:38;;;;;;;20.87;5.00;;;11.20;99.90;;;;;;5009084;28;20227;-83
2020/12/01 11:55:07;;;;;;;21.07;4.47;;;11.20;99.90;;;;;;5009410;28;20239;-77
2020/12/01 11:57:33;;;;;;;22.60;4.83;;;11.20;99.90;;;;;;5007078;28;20218;-76
2020/12/01 12:00:00;;;;;;;25.60;4.93;;;11.10;99.90;;;;;;5009237;28;20215;-83
2020/12/01 12:02:26;;;;;;;22.83;5.20;;;11.00;99.90;;;;;;5007276;28;20199;-76
2020/12/01 12:04:52;;;;;;;23.17;5.27;;;11.00;99.90;;;;;;5008250;28;20199;-88
2020/12/01 12:07:18;;;;;;;22.47;4.63;;;11.00;99.90;;;;;;5006081;28;20200;-78
2020/12/01 12:09:45;;;;;;;20.50;4.37;;;10.90;99.90;;;;;;5006538;28;20206;-88
2020/12/01 12:12:12;;;;;;;25.93;4.83;;;10.90;99.90;;;;;;5007697;28;20227;-83
2020/12/01 12:14:38;;;;;;;25.43;5.20;;;10.90;99.90;;;;;;5007773;28;20214;-75
2020/12/01 12:17:05;;;;;;;16.87;3.80;;;11.00;99.90;;;;;;5006355;28;20210;-79
2020/12/01 12:19:31;;;;;;;20.33;4.30;;;11.00;99.90;;;;;;5027660;28;20210;-79
2020/12/01 12:21:57;;;;;;;22.10;4.37;;;11.00;99.90;;;;;;5028109;28;20658;-87
2020/12/01 12:24:23;;;;;;;22.80;5.87;;;11.00;99.90;;;;;;5027938;28;20210;-81
2020/12/01 12:26:50;;;;;;;19.40;5.47;;;11.10;99.90;;;;;;5029166;28;20214;-76
2020/12/01 12:29:17;;;;;;;19.23;5.33;;;11.10;99.90;;;;;;5028662;28;20191;-86
2020/12/01 12:31:44;;;;;;;22.50;4.90;;;11.10;99.90;;;;;;5028374;28;20234;-84
2020/12/01 12:34:11;;;;;;;26.50;4.57;;;11.10;99.90;;;;;;5029240;28;20183;-85
2020/12/01 12:36:37;;;;;;;19.57;4.50;;;11.10;99.90;;;;;;5028293;28;20198;-82
2020/12/01 12:39:03;;;;;;;21.73;3.90;;;11.00;99.90;;;;;;5026457;28;20206;-78
2020/12/01 12:41:29;;;;;;;15.07;4.20;;;11.00;99.90;;;;;;5026719;28;20742;-78
2020/12/01 12:43:56;;;;;;;23.87;4.27;;;10.90;99.90;;;;;;5028184;28;20203;-86
2020/12/01 12:46:23;;;;;;;20.37;3.80;;;10.90;99.90;;;;;;5027398;28;20218;-85
2020/12/01 12:48:49;;;;;;;25.77;5.80;;;10.90;99.90;;;;;;5027301;28;20199;-76
2020/12/01 12:51:15;;;;;;;26.10;4.80;;;10.90;99.90;;;;;;5026811;28;20222;-84
2020/12/01 12:53:42;;;;;;;21.03;4.07;;;10.90;99.90;;;;;;5027113;28;20249;-88
2020/12/01 12:56:08;;;;;;;20.07;4.53;;;10.90;99.90;;;;;;5026959;28;20221;-83
2020/12/01 12:58:34;;;;;;;15.50;3.80;;;11.00;99.90;;;;;;5026944;28;20203;-77
2020/12/01 13:01:00;;;;;;;20.03;4.40;;;11.00;99.90;;;;;;5031254;28;20951;-80
2020/12/01 13:03:27;;;;;;;26.37;4.90;;;11.00;99.90;;;;;;5033785;28;20199;-83
2020/12/01 13:05:54;;;;;;;25.70;4.07;;;11.10;99.90;;;;;;5026888;28;20198;-80
2020/12/01 13:08:20;;;;;;;24.83;4.47;;;11.10;99.90;;;;;;5024889;28;20207;-76
2020/12/01 13:10:46;;;;;;;13.67;4.07;;;11.10;99.90;;;;;;5027426;28;20207;-88
2020/12/01 13:13:13;;;;;;;19.10;5.27;;;11.00;99.90;;;;;;5026126;28;20321;-89
2020/12/01 13:15:39;;;;;;;22.93;5.27;;;11.00;99.90;;;;;;5028139;28;20202;-91
2020/12/01 13:18:06;;;;;;;35.03;5.60;;;10.90;99.90;;;;;;5027876;28;20460;-86
2020/12/01 13:20:33;;;;;;;25.80;5.47;;;10.90;99.90;;;;;;5027966;28;20209;-77
2020/12/01 13:23:00;;;;;;;23.53;4.57;;;10.80;99.90;;;;;;5029248;28;20194;-88
2020/12/01 13:25:26;;;;;;;22.40;5.20;;;10.70;99.90;;;;;;5028028;28;20206;-84
2020/12/01 13:27:52;;;;;;;30.03;4.23;;;10.70;99.90;;;;;;5022808;28;20214;-79
2020/12/01 13:30:22;;;;;;;26.17;5.77;;;10.60;99.90;;;;;;5024160;28;20682;-75
2020/12/01 13:32:48;;;;;;;31.13;5.80;;;10.50;99.90;;;;;;5022685;28;20231;-78
2020/12/01 13:35:16;;;;;;;27.93;5.03;;;10.50;99.90;;;;;;5019750;28;20214;-79
2020/12/01 13:37:43;;;;;;;21.60;5.37;;;10.40;99.90;;;;;;5017732;28;20200;-78
2020/12/01 13:40:11;;;;;;;24.37;4.67;;;10.40;99.90;;;;;;5003217;28;20195;-79
2020/12/01 13:42:38;;;;;;;22.03;4.83;;;10.40;99.90;;;;;;5001990;28;20211;-76
2020/12/01 13:45:04;;;;;;;18.23;4.83;;;10.40;99.90;;;;;;5002645;28;20207;-76
2020/12/01 13:47:32;;;;;;;23.17;4.30;;;10.40;99.90;;;;;;5002700;28;20215;-76